Time;durP1;ratioP1;P1;durP2;ratioP2;P2;SDS_P1;SDS_P2;PMS_P1;PMS_P2;Temp;Humidity;BMP_temperature;BMP_pressure;BME280_temperature;BME280_humidity;BME280_pressure;Samples;Min_cycle;Max_cycle;Signal;HPM_P1;HPM_P2
2022/03/17 00:00:07;;;;;;;131.12;63.35;;;;;;;2.84;79.45;103085.33;1728175;81;21090;-83
2022/03/17 00:02:37;;;;;;;141.05;63.38;;;;;;;2.85;79.55;103075.47;1747577;81;21118;-84
2022/03/17 00:05:07;;;;;;;142.90;62.23;;;;;;;2.89;79.46;103085.38;1740454;81;21619;-84
2022/03/17 00:07:33;;;;;;;130.50;61.25;;;;;;;2.88;79.40;103086.53;1741442;80;21258;-84
2022/03/17 00:10:00;;;;;;;128.02;58.30;;;;;;;2.83;79.28;103084.78;1734478;81;22500;-83
2022/03/17 00:12:26;;;;;;;129.78;58.02;;;;;;;2.79;79.33;103079.16;1738523;80;21070;-84
2022/03/17 00:14:53;;;;;;;123.40;60.28;;;;;;;2.77;79.28;103080.71;1733010;80;21077;-83
2022/03/17 00:17:20;;;;;;;124.15;57.95;;;;;;;2.72;79.22;103089.36;1726027;80;22095;-83
2022/03/17 00:19:46;;;;;;;115.72;57.53;;;;;;;2.70;79.40;103084.41;1722146;81;21069;-84
2022/03/17 00:22:16;;;;;;;120.33;58.40;;;;;;;2.70;79.36;103087.94;1728387;82;21822;-85
2022/03/17 00:24:42;;;;;;;119.50;57.23;;;;;;;2.68;79.35;103081.69;1737695;80;21118;-85
2022/03/17 00:27:10;;;;;;;135.25;57.60;;;;;;;2.69;79.52;103086.49;1737326;80;21054;-86
2022/03/17 00:29:37;;;;;;;126.02;56.05;;;;;;;2.72;79.43;103085.45;1720293;81;21106;-85
2022/03/17 00:32:04;;;;;;;117.82;56.80;;;;;;;2.69;79.23;103081.29;1723215;82;21010;-84
2022/03/17 00:34:31;;;;;;;127.50;58.70;;;;;;;2.66;79.32;103082.29;1742542;80;21767;-83
2022/03/17 00:36:58;;;;;;;116.00;55.30;;;;;;;2.65;79.29;103088.28;1719184;81;21596;-85
2022/03/17 00:39:25;;;;;;;116.45;55.98;;;;;;;2.61;79.33;103086.13;1757469;80;21029;-84
2022/03/17 00:41:51;;;;;;;115.40;54.45;;;;;;;2.65;79.38;103093.09;1763866;80;21060;-84
2022/03/17 00:44:18;;;;;;;119.77;55.23;;;;;;;2.63;79.30;103086.83;1740194;80;21116;-82
2022/03/17 00:46:45;;;;;;;113.37;55.67;;;;;;;2.62;79.23;103089.28;1730175;80;21801;-84
2022/03/17 00:49:12;;;;;;;113.20;54.55;;;;;;;2.63;79.35;103095.02;1737168;80;21069;-83
2022/03/17 00:51:40;;;;;;;113.95;54.73;;;;;;;2.64;79.32;103096.84;1744275;80;21638;-84
2022/03/17 00:54:06;;;;;;;114.55;56.35;;;;;;;2.63;79.21;103093.33;1726078;80;21609;-84
2022/03/17 00:56:33;;;;;;;109.87;52.95;;;;;;;2.62;79.28;103092.78;1731437;82;21110;-85
2022/03/17 00:59:00;;;;;;;112.83;53.05;;;;;;;2.67;79.36;103095.44;1722433;80;21757;-85
2022/03/17 01:01:26;;;;;;;117.03;55.50;;;;;;;2.67;79.22;103092.84;1728863;82;21083;-84
2022/03/17 01:03:53;;;;;;;119.33;55.43;;;;;;;2.65;79.20;103087.89;1722229;82;21086;-84
2022/03/17 01:06:20;;;;;;;112.30;55.60;;;;;;;2.67;79.33;103087.64;1705790;82;21061;-85
2022/03/17 01:08:48;;;;;;;126.05;59.45;;;;;;;2.72;79.40;103091.96;1719854;81;21064;-84
2022/03/17 01:11:15;;;;;;;117.08;54.95;;;;;;;2.71;79.22;103092.75;1751213;80;21707;-85
2022/03/17 01:13:41;;;;;;;116.70;54.60;;;;;;;2.69;79.26;103091.69;1718754;81;21083;-86
2022/03/17 01:16:08;;;;;;;119.97;56.15;;;;;;;2.68;79.24;103090.79;1745289;80;21077;-85
2022/03/17 01:18:35;;;;;;;111.50;55.98;;;;;;;2.61;79.15;103087.43;1759842;80;21046;-85
2022/03/17 01:21:02;;;;;;;100.92;50.17;;;;;;;2.64;79.16;103093.84;1711518;81;21066;-86
2022/03/17 01:23:29;;;;;;;115.77;52.27;;;;;;;2.55;78.85;103095.56;1728136;80;21749;-86
2022/03/17 01:25:55;;;;;;;108.97;50.83;;;;;;;2.44;78.95;103098.83;1772971;80;21060;-85
2022/03/17 01:28:22;;;;;;;104.23;51.48;;;;;;;2.45;79.30;103097.67;1739742;81;21073;-84
2022/03/17 01:30:50;;;;;;;99.72;48.65;;;;;;;2.48;79.34;103096.69;1742781;80;21073;-84
2022/03/17 01:33:16;;;;;;;99.65;46.83;;;;;;;2.47;79.23;103093.94;1743959;80;21080;-83
2022/03/17 01:35:43;;;;;;;94.90;47.25;;;;;;;2.47;79.19;103100.43;1750728;80;21758;-83
2022/03/17 01:38:10;;;;;;;96.50;47.73;;;;;;;2.45;79.22;103104.17;1739609;80;21673;-84
2022/03/17 01:40:36;;;;;;;97.75;48.00;;;;;;;2.45;79.19;103100.67;1772182;80;21341;-84
2022/03/17 01:43:03;;;;;;;101.47;47.62;;;;;;;2.38;79.00;103102.15;1759483;80;21540;-85
2022/03/17 01:45:30;;;;;;;109.57;50.92;;;;;;;2.35;79.12;103106.68;1764886;80;20978;-85
2022/03/17 01:47:57;;;;;;;110.25;49.65;;;;;;;2.32;79.19;103113.78;1747863;80;21738;-84
2022/03/17 01:50:24;;;;;;;106.43;47.30;;;;;;;2.30;79.15;103107.52;1760067;80;21061;-84
2022/03/17 01:52:50;;;;;;;95.83;47.60;;;;;;;2.23;79.07;103106.39;1745921;80;21081;-83
2022/03/17 01:55:17;;;;;;;104.27;48.15;;;;;;;2.21;79.19;103113.52;1758841;80;21022;-83
2022/03/17 01:57:44;;;;;;;107.17;47.20;;;;;;;2.18;79.37;103112.85;1711573;82;21158;-84
2022/03/17 02:00:14;;;;;;;98.75;48.02;;;;;;;2.19;79.50;103109.47;1714773;81;22649;-84
2022/03/17 02:02:47;;;;;;;109.37;49.65;;;;;;;2.18;79.42;103110.61;1735357;81;21117;-84
2022/03/17 02:05:14;;;;;;;110.22;49.27;;;;;;;2.19;79.69;103108.17;1727050;82;21090;-85
2022/03/17 02:07:51;;;;;;;102.90;47.75;;;;;;;2.25;79.75;103112.69;1731410;82;21118;-83
2022/03/17 02:10:18;;;;;;;93.87;46.13;;;;;;;2.28;79.74;103121.14;1730343;82;21109;-83
2022/03/17 02:15:32;;;;;;;94.92;46.13;;;;;;;2.30;79.63;103114.02;1726370;81;21079;-84
2022/03/17 02:17:58;;;;;;;101.72;46.88;;;;;;;2.28;79.43;103114.65;1726012;81;21577;-83
2022/03/17 02:20:25;;;;;;;96.65;46.58;;;;;;;2.28;79.63;103111.66;1724110;81;21015;-83
2022/03/17 02:22:53;;;;;;;103.42;47.67;;;;;;;2.32;79.68;103116.77;1729814;82;21530;-84
2022/03/17 02:25:36;;;;;;;96.02;45.40;;;;;;;2.35;79.67;103113.18;1738838;81;21764;-84
2022/03/17 02:28:05;;;;;;;96.28;47.50;;;;;;;2.37;79.62;103110.34;1739058;82;21110;-84
2022/03/17 02:30:34;;;;;;;89.28;42.65;;;;;;;2.38;79.51;103109.55;1733856;82;21071;-84
2022/03/17 02:33:06;;;;;;;81.35;41.50;;;;;;;2.37;79.48;103107.73;1725978;81;21063;-84
2022/03/17 02:35:33;;;;;;;78.62;40.58;;;;;;;2.33;79.14;103109.52;1733378;82;21039;-83
2022/03/17 02:38:04;;;;;;;77.70;41.23;;;;;;;2.27;79.09;103104.65;1709776;82;21696;-84
2022/03/17 02:40:31;;;;;;;82.65;42.00;;;;;;;2.25;79.07;103102.65;1746486;81;21589;-83
2022/03/17 02:42:58;;;;;;;85.80;43.78;;;;;;;2.23;79.13;103108.08;1727312;82;21055;-83
2022/03/17 02:45:25;;;;;;;83.90;42.98;;;;;;;2.25;79.27;103106.55;1725605;82;21544;-84
2022/03/17 02:47:51;;;;;;;98.42;46.30;;;;;;;2.27;79.28;103110.20;1727899;81;21094;-85
2022/03/17 02:50:18;;;;;;;93.90;44.93;;;;;;;2.28;79.32;103109.45;1714379;82;21799;-84
2022/03/17 02:52:45;;;;;;;90.60;45.05;;;;;;;2.28;79.24;103108.16;1712276;81;21533;-85
2022/03/17 02:55:12;;;;;;;92.10;43.20;;;;;;;2.29;79.39;103104.41;1753171;81;21058;-85
2022/03/17 02:57:39;;;;;;;91.57;44.50;;;;;;;2.32;79.33;103099.88;1729950;81;21052;-84
2022/03/17 03:00:08;;;;;;;96.20;43.60;;;;;;;2.31;79.32;103097.67;1705202;82;21082;-84
2022/03/17 03:02:34;;;;;;;92.75;43.40;;;;;;;2.29;79.19;103104.41;1734187;80;22507;-84
2022/03/17 03:05:01;;;;;;;91.87;43.02;;;;;;;2.29;79.20;103106.06;1717162;81;21659;-84
2022/03/17 03:07:28;;;;;;;86.53;43.17;;;;;;;2.29;79.15;103108.66;1734137;80;21106;-84
2022/03/17 03:09:55;;;;;;;89.52;43.45;;;;;;;2.28;79.18;103100.36;1751950;80;21081;-83
2022/03/17 03:12:22;;;;;;;100.42;45.55;;;;;;;2.30;79.24;103106.61;1709869;81;21133;-83
2022/03/17 03:14:49;;;;;;;91.08;44.33;;;;;;;2.30;79.24;103105.31;1733456;80;21761;-83
2022/03/17 03:17:16;;;;;;;92.80;44.42;;;;;;;2.28;79.12;103109.45;1737382;80;21073;-85
2022/03/17 03:19:42;;;;;;;89.97;43.20;;;;;;;2.25;79.15;103114.34;1717755;82;21004;-84
2022/03/17 03:22:09;;;;;;;90.05;44.90;;;;;;;2.24;79.13;103119.93;1733124;81;21089;-84
2022/03/17 03:24:38;;;;;;;97.88;45.35;;;;;;;2.23;79.22;103127.18;1732683;80;21564;-84
2022/03/17 03:27:05;;;;;;;87.05;43.80;;;;;;;2.22;79.12;103129.27;1742844;81;21603;-84
2022/03/17 03:29:32;;;;;;;90.38;45.58;;;;;;;2.22;79.14;103134.86;1738209;82;21658;-83
2022/03/17 03:32:00;;;;;;;89.13;43.28;;;;;;;2.20;79.18;103129.50;1739003;80;21094;-84
2022/03/17 03:34:27;;;;;;;85.28;43.28;;;;;;;2.25;79.38;103127.33;1731149;81;21079;-84
2022/03/17 03:39:38;;;;;;;90.83;43.23;;;;;;;2.26;79.17;103133.08;1745013;81;21809;-84
2022/03/17 03:42:07;;;;;;;90.38;42.95;;;;;;;2.27;79.24;103137.49;1691658;81;38314;-84
2022/03/17 03:44:35;;;;;;;94.62;44.35;;;;;;;2.28;79.25;103139.34;1719981;81;21086;-83
2022/03/17 03:47:02;;;;;;;83.80;41.95;;;;;;;2.29;79.15;103141.15;1754886;80;21118;-83
2022/03/17 03:49:28;;;;;;;96.05;43.65;;;;;;;2.27;79.01;103141.03;1737715;80;21090;-83
2022/03/17 03:51:55;;;;;;;84.55;41.35;;;;;;;2.22;79.05;103138.36;1727848;81;21762;-84
2022/03/17 03:54:22;;;;;;;81.25;40.83;;;;;;;2.17;78.88;103141.28;1745588;81;21066;-84
2022/03/17 03:56:54;;;;;;;86.82;43.13;;;;;;;2.08;78.69;103133.13;1732672;80;21042;-84
2022/03/17 03:59:23;;;;;;;84.30;39.95;;;;;;;2.02;78.84;103138.09;1737018;81;21094;-83
2022/03/17 04:01:53;;;;;;;80.95;40.28;;;;;;;1.99;78.93;103136.13;1744098;80;21063;-84
2022/03/17 04:04:20;;;;;;;87.02;40.70;;;;;;;1.94;78.82;103140.86;1725965;81;21765;-83
2022/03/17 04:06:58;;;;;;;86.57;39.98;;;;;;;1.91;78.90;103138.34;1720055;81;21520;-84
2022/03/17 04:09:27;;;;;;;82.75;42.30;;;;;;;1.87;78.97;103138.80;1742797;81;21612;-84
2022/03/17 04:11:53;;;;;;;89.85;43.80;;;;;;;1.84;79.05;103138.49;1743603;81;21560;-84
2022/03/17 04:14:20;;;;;;;85.42;43.73;;;;;;;1.85;79.24;103143.84;1735590;81;21738;-84
2022/03/17 04:16:47;;;;;;;88.52;45.35;;;;;;;1.86;79.30;103146.98;1725250;81;21691;-84
2022/03/17 04:19:15;;;;;;;94.47;45.33;;;;;;;1.86;79.31;103146.05;1748701;81;21110;-84
2022/03/17 04:21:42;;;;;;;89.37;44.88;;;;;;;1.90;79.52;103150.81;1743497;81;21082;-84
2022/03/17 04:24:09;;;;;;;89.00;42.90;;;;;;;1.92;79.38;103147.97;1730626;81;21114;-84
2022/03/17 04:26:36;;;;;;;91.50;44.65;;;;;;;1.92;79.30;103147.97;1742698;81;21074;-83
2022/03/17 04:29:02;;;;;;;90.25;44.18;;;;;;;1.88;79.14;103149.35;1746638;81;21732;-84
2022/03/17 04:31:29;;;;;;;95.47;45.50;;;;;;;1.86;79.10;103157.38;1740985;81;21109;-84
2022/03/17 04:33:56;;;;;;;92.92;45.48;;;;;;;1.83;79.28;103148.36;1729024;81;21131;-84
2022/03/17 04:36:22;;;;;;;90.25;45.38;;;;;;;1.85;79.44;103148.13;1734594;81;21055;-84
2022/03/17 04:38:51;;;;;;;94.52;45.73;;;;;;;1.87;79.45;103143.61;1737096;81;21112;-84
2022/03/17 04:41:18;;;;;;;85.50;43.25;;;;;;;1.91;79.63;103144.83;1730921;81;21702;-84
2022/03/17 04:43:45;;;;;;;86.08;44.03;;;;;;;1.91;79.47;103147.42;1724997;80;21231;-84
2022/03/17 04:46:12;;;;;;;89.52;43.92;;;;;;;1.89;79.44;103156.36;1725251;81;21089;-83
2022/03/17 04:48:39;;;;;;;90.00;42.65;;;;;;;1.86;79.29;103155.14;1732796;81;21567;-83
2022/03/17 04:51:06;;;;;;;80.62;41.55;;;;;;;1.84;79.39;103159.27;1738835;81;21038;-83
2022/03/17 04:53:33;;;;;;;78.28;39.13;;;;;;;1.83;79.37;103160.05;1743091;81;21760;-76
2022/03/17 04:56:03;;;;;;;79.15;39.23;;;;;;;1.80;79.34;103156.75;1728613;80;21078;-85
2022/03/17 04:58:31;;;;;;;70.28;37.50;;;;;;;1.81;79.40;103169.37;1744207;81;21007;-84
2022/03/17 05:00:58;;;;;;;78.35;38.70;;;;;;;1.81;79.33;103167.69;1745864;81;21094;-83
2022/03/17 05:03:25;;;;;;;80.90;39.75;;;;;;;1.80;79.33;103165.83;1731976;81;21082;-84
2022/03/17 05:05:51;;;;;;;105.55;46.73;;;;;;;1.79;79.31;103173.50;1738014;81;21830;-84
2022/03/17 05:08:18;;;;;;;114.37;50.70;;;;;;;1.76;79.35;103170.20;1739988;81;21074;-85
2022/03/17 05:10:47;;;;;;;119.00;48.35;;;;;;;1.75;79.40;103166.69;1736813;81;21007;-84
2022/03/17 05:13:14;;;;;;;98.37;41.63;;;;;;;1.77;79.38;103174.64;1738809;81;21025;-86
2022/03/17 05:15:43;;;;;;;107.47;48.30;;;;;;;1.77;79.42;103172.44;1736042;81;21132;-88
2022/03/17 05:18:10;;;;;;;107.75;47.85;;;;;;;1.76;79.36;103170.20;1743730;81;22529;-86
2022/03/17 05:20:37;;;;;;;123.90;51.40;;;;;;;1.77;79.50;103170.75;1750951;81;21757;-88
2022/03/17 05:23:05;;;;;;;115.55;50.67;;;;;;;1.77;79.39;103175.94;1725757;81;21078;-87
2022/03/17 05:25:32;;;;;;;102.50;48.70;;;;;;;1.77;79.26;103172.44;1741629;81;21074;-85
2022/03/17 05:27:59;;;;;;;91.02;44.70;;;;;;;1.77;79.23;103175.94;1746056;81;21054;-81
2022/03/17 05:30:26;;;;;;;85.95;44.85;;;;;;;1.76;79.17;103176.69;1732897;81;22480;-84
2022/03/17 05:32:53;;;;;;;81.00;44.05;;;;;;;1.80;79.23;103179.21;1743707;81;21047;-90
2022/03/17 05:35:22;;;;;;;78.52;41.73;;;;;;;1.80;79.20;103180.51;1731387;81;21125;-90
2022/03/17 05:37:50;;;;;;;81.05;42.10;;;;;;;1.82;79.21;103182.52;1734875;81;21058;-90
2022/03/17 05:40:18;;;;;;;81.40;41.92;;;;;;;1.84;79.23;103187.83;1753722;81;21050;-91
2022/03/17 05:42:48;;;;;;;81.08;41.85;;;;;;;1.88;79.35;103187.02;1753551;81;22627;-91
2022/03/17 05:45:16;;;;;;;87.88;42.38;;;;;;;1.89;79.09;103192.72;1740118;81;21110;-90
2022/03/17 05:47:48;;;;;;;78.70;43.52;;;;;;;1.93;79.17;103188.39;1739077;81;21098;-89
2022/03/17 05:50:21;;;;;;;89.03;46.20;;;;;;;1.96;79.12;103187.77;1728791;82;21067;-89
2022/03/17 05:52:48;;;;;;;94.03;45.67;;;;;;;2.01;79.14;103194.34;1736485;81;21177;-86
2022/03/17 05:55:16;;;;;;;87.65;45.40;;;;;;;2.05;79.20;103199.07;1743927;80;21809;-91
2022/03/17 05:57:48;;;;;;;84.95;46.42;;;;;;;2.10;79.11;103198.20;1732097;82;21537;-86
2022/03/17 06:00:17;;;;;;;84.80;46.40;;;;;;;2.11;79.01;103198.75;1725068;81;21142;-78
2022/03/17 06:02:44;;;;;;;94.80;50.08;;;;;;;2.17;79.15;103195.45;1716590;81;21122;-76
2022/03/17 06:05:11;;;;;;;92.65;51.95;;;;;;;2.24;79.02;103199.19;1728677;81;21351;-76
2022/03/17 06:07:39;;;;;;;89.87;49.75;;;;;;;2.27;78.85;103186.52;1725224;81;21783;-76
2022/03/17 06:10:12;;;;;;;84.15;46.80;;;;;;;2.30;78.77;103200.17;1732861;80;21051;-76
2022/03/17 06:12:39;;;;;;;84.90;46.37;;;;;;;2.33;78.70;103197.49;1725316;81;21073;-77
2022/03/17 06:15:07;;;;;;;88.70;47.98;;;;;;;2.37;78.60;103200.02;1725510;81;21098;-76
2022/03/17 06:17:43;;;;;;;94.60;51.55;;;;;;;2.43;78.57;103197.09;1730181;81;21034;-82
2022/03/17 06:20:13;;;;;;;94.15;53.15;;;;;;;2.52;78.61;103197.98;1731161;81;21786;-85
2022/03/17 06:22:40;;;;;;;104.47;54.77;;;;;;;2.56;78.30;103200.50;1736516;81;21015;-85
2022/03/17 06:25:08;;;;;;;103.05;54.10;;;;;;;2.61;78.46;103200.54;1729797;81;21101;-83
2022/03/17 06:27:35;;;;;;;94.45;55.08;;;;;;;2.67;78.31;103198.55;1739286;81;21457;-86
2022/03/17 06:30:06;;;;;;;80.38;44.20;;;;;;;2.77;78.41;103204.25;1750395;81;21121;-90
2022/03/17 06:32:34;;;;;;;84.85;44.30;;;;;;;2.85;78.34;103201.98;1741819;82;21783;-90
2022/03/17 06:35:00;;;;;;;76.22;44.38;;;;;;;2.85;77.74;103206.83;1730485;82;21046;-90
2022/03/17 06:37:27;;;;;;;80.15;45.85;;;;;;;2.80;77.64;103201.95;1741070;81;21499;-89
2022/03/17 06:39:53;;;;;;;78.62;42.70;;;;;;;2.79;77.58;103197.11;1742594;82;21011;-89
2022/03/17 06:42:21;;;;;;;96.50;50.98;;;;;;;2.89;77.79;103197.23;1725045;82;21625;-90
2022/03/17 06:44:50;;;;;;;80.32;45.25;;;;;;;2.97;77.61;103197.06;1724603;82;21695;-89
2022/03/17 06:47:16;;;;;;;80.15;44.23;;;;;;;3.11;77.78;103199.26;1735759;81;21034;-90
2022/03/17 06:49:43;;;;;;;68.22;42.40;;;;;;;3.20;77.54;103202.73;1753517;81;21062;-90
2022/03/17 06:52:10;;;;;;;73.52;41.60;;;;;;;3.21;77.02;103206.24;1763732;80;21086;-90
2022/03/17 06:54:37;;;;;;;70.05;39.03;;;;;;;3.23;76.93;103203.39;1731683;81;21586;-90
2022/03/17 06:57:04;;;;;;;61.73;37.63;;;;;;;3.25;76.83;103207.09;1758066;81;21761;-91
2022/03/17 06:59:31;;;;;;;60.28;37.13;;;;;;;3.24;76.72;103214.35;1741537;81;21056;-90
2022/03/17 07:01:57;;;;;;;61.42;37.38;;;;;;;3.23;76.69;103216.41;1759048;81;21033;-89
2022/03/17 07:04:27;;;;;;;56.02;36.38;;;;;;;3.21;76.57;103223.16;1759200;81;21105;-89
2022/03/17 07:06:53;;;;;;;61.77;37.45;;;;;;;3.21;76.67;103224.45;1759276;81;21116;-89
2022/03/17 07:09:20;;;;;;;65.22;37.17;;;;;;;3.21;76.60;103226.70;1746930;81;21752;-89
2022/03/17 07:11:47;;;;;;;59.83;35.45;;;;;;;3.25;76.70;103225.31;1728851;82;21468;-88
2022/03/17 07:14:13;;;;;;;54.10;35.48;;;;;;;3.24;76.46;103227.37;1731554;81;21095;-89
2022/03/17 07:16:40;;;;;;;55.65;35.55;;;;;;;3.22;76.43;103222.41;1759081;81;21038;-88
2022/03/17 07:19:07;;;;;;;62.00;36.35;;;;;;;3.22;76.48;103228.52;1753749;81;21049;-88
2022/03/17 07:21:37;;;;;;;56.40;35.55;;;;;;;3.24;76.32;103223.45;1758325;81;21794;-89
2022/03/17 07:24:05;;;;;;;56.53;36.08;;;;;;;3.14;76.29;103209.97;1755890;80;21045;-89
2022/03/17 07:26:41;;;;;;;57.15;36.95;;;;;;;3.24;76.23;103229.57;1759183;81;21002;-89
2022/03/17 07:29:08;;;;;;;61.23;37.90;;;;;;;3.23;76.29;103228.12;1758957;81;21037;-90
2022/03/17 07:31:35;;;;;;;67.67;41.68;;;;;;;3.26;76.33;103229.33;1751588;81;21010;-89
2022/03/17 07:34:02;;;;;;;61.95;39.55;;;;;;;3.30;76.30;103232.78;1735861;81;22532;-89
2022/03/17 07:36:28;;;;;;;64.62;40.25;;;;;;;3.31;76.30;103235.89;1760476;81;20989;-89
2022/03/17 07:38:56;;;;;;;56.53;35.68;;;;;;;3.35;76.23;103245.30;1761485;81;21024;-89
2022/03/17 07:41:23;;;;;;;60.67;38.00;;;;;;;3.38;76.26;103243.91;1740332;81;21025;-89
2022/03/17 07:43:50;;;;;;;68.75;39.35;;;;;;;3.42;76.20;103243.81;1703761;83;21037;-88
2022/03/17 07:46:16;;;;;;;79.72;45.45;;;;;;;3.44;76.05;103243.57;1743636;80;21761;-89
2022/03/17 07:48:44;;;;;;;80.35;43.25;;;;;;;3.47;76.05;103239.57;1757474;81;21034;-89
2022/03/17 07:51:11;;;;;;;72.70;42.65;;;;;;;3.51;76.07;103239.47;1776730;80;21536;-89
2022/03/17 07:53:42;;;;;;;58.05;37.93;;;;;;;3.57;76.12;103238.73;1728393;82;21066;-89
2022/03/17 07:56:09;;;;;;;59.67;36.40;;;;;;;3.64;76.12;103234.62;1737411;81;21623;-89
2022/03/17 07:58:39;;;;;;;58.05;37.20;;;;;;;3.68;76.01;103228.02;1724641;82;21763;-89
2022/03/17 08:01:05;;;;;;;55.95;36.00;;;;;;;3.79;75.82;103245.92;1722974;82;21044;-89
2022/03/17 08:03:52;;;;;;;57.85;37.05;;;;;;;3.87;75.86;103250.17;1718859;82;21032;-89
2022/03/17 08:06:18;;;;;;;60.70;37.50;;;;;;;3.96;75.81;103248.78;1722701;82;21514;-88
2022/03/17 08:08:46;;;;;;;60.17;38.20;;;;;;;4.05;75.77;103244.05;1731429;82;21093;-87
2022/03/17 08:11:39;;;;;;;64.12;39.45;;;;;;;4.11;75.52;103253.18;1722491;82;21795;-88
2022/03/17 08:14:06;;;;;;;61.80;39.53;;;;;;;4.14;75.37;103256.08;1734989;81;21055;-89
2022/03/17 08:16:32;;;;;;;61.53;39.25;;;;;;;4.21;75.49;103254.56;1742854;81;20992;-89
2022/03/17 08:19:11;;;;;;;63.92;39.65;;;;;;;4.28;75.39;103248.73;1733372;82;21093;-89
2022/03/17 08:21:39;;;;;;;68.10;42.93;;;;;;;4.33;75.23;103261.27;1742818;82;21572;-89
2022/03/17 08:24:07;;;;;;;69.05;42.83;;;;;;;4.36;75.14;103260.25;1745404;81;21148;-89
2022/03/17 08:26:34;;;;;;;69.95;41.85;;;;;;;4.40;75.07;103255.84;1728129;82;21138;-89
2022/03/17 08:29:01;;;;;;;70.30;43.02;;;;;;;4.46;75.17;103261.20;1744663;82;21538;-89
2022/03/17 08:31:36;;;;;;;68.33;41.77;;;;;;;4.52;75.00;103259.92;1719293;82;21090;-89
2022/03/17 08:34:05;;;;;;;64.80;40.80;;;;;;;4.53;74.80;103257.86;1683563;83;21642;-89
2022/03/17 08:36:42;;;;;;;70.67;41.37;;;;;;;4.53;74.76;103257.86;1685954;83;21790;-89
2022/03/17 08:39:11;;;;;;;57.45;37.85;;;;;;;4.58;74.79;103250.03;1742953;82;21098;-89
2022/03/17 08:41:45;;;;;;;66.57;40.08;;;;;;;4.68;74.83;103252.30;1690734;82;21023;-89
2022/03/17 08:44:12;;;;;;;57.03;37.05;;;;;;;4.81;74.78;103256.02;1705558;83;21085;-88
2022/03/17 08:49:24;;;;;;;74.77;44.77;;;;;;;5.01;74.40;103249.92;1749654;80;21714;-89
2022/03/17 08:51:56;;;;;;;62.35;40.10;;;;;;;5.06;74.22;103248.64;1746276;82;21058;-89
2022/03/17 08:54:25;;;;;;;63.92;39.13;;;;;;;5.08;73.97;103253.60;1719287;80;21585;-88
2022/03/17 08:57:03;;;;;;;58.85;40.17;;;;;;;5.03;73.72;103250.60;1717038;80;21074;-88
2022/03/17 08:59:31;;;;;;;62.65;40.38;;;;;;;5.05;73.81;103241.21;1728976;81;21033;-88
2022/03/17 09:02:04;;;;;;;56.85;37.20;;;;;;;5.17;73.92;103252.20;1714209;82;21701;-88
2022/03/17 09:04:31;;;;;;;67.55;41.40;;;;;;;5.26;73.77;103247.37;1717016;82;21074;-88
2022/03/17 09:07:02;;;;;;;64.85;39.35;;;;;;;5.36;73.77;103241.24;1722295;82;21063;-87
2022/03/17 09:09:33;;;;;;;57.38;39.78;;;;;;;5.45;73.61;103238.12;1716847;81;21142;-87
2022/03/17 09:12:05;;;;;;;68.52;43.80;;;;;;;5.55;73.50;103230.67;1739042;81;21027;-88
2022/03/17 09:14:44;;;;;;;73.57;43.73;;;;;;;5.62;73.36;103234.73;1738558;81;21794;-88
2022/03/17 09:17:10;;;;;;;71.57;42.08;;;;;;;5.71;73.30;103226.77;1751518;81;21019;-89
2022/03/17 09:19:37;;;;;;;70.97;45.23;;;;;;;5.79;73.12;103229.22;1744870;81;21073;-89
2022/03/17 09:22:04;;;;;;;66.82;43.28;;;;;;;5.82;72.90;103224.27;1745026;81;21074;-89
2022/03/17 09:24:37;;;;;;;62.80;42.17;;;;;;;5.88;72.85;103221.25;1731146;82;21078;-89
2022/03/17 09:27:05;;;;;;;68.85;42.95;;;;;;;5.91;72.65;103222.83;1731970;81;21785;-89
2022/03/17 09:29:38;;;;;;;59.38;39.88;;;;;;;5.93;72.42;103226.48;1693271;83;21059;-88
2022/03/17 09:32:04;;;;;;;67.25;42.90;;;;;;;5.93;72.17;103226.48;1744557;82;21102;-89
2022/03/17 09:34:32;;;;;;;56.68;38.90;;;;;;;5.96;72.28;103223.23;1751133;81;21079;-89
2022/03/17 09:36:59;;;;;;;51.55;37.83;;;;;;;6.00;72.07;103225.30;1721045;83;21031;-89
2022/03/17 09:39:47;;;;;;;55.83;36.17;;;;;;;6.01;72.00;103220.61;1720666;83;21770;-89
2022/03/17 09:42:18;;;;;;;53.25;34.85;;;;;;;5.98;71.99;103216.42;1733696;82;21083;-89
2022/03/17 09:44:52;;;;;;;49.27;34.40;;;;;;;6.13;72.00;103228.55;1733096;82;21058;-89
2022/03/17 09:47:18;;;;;;;46.25;33.98;;;;;;;6.18;71.99;103232.47;1722918;81;21049;-88
2022/03/17 09:49:53;;;;;;;48.80;34.20;;;;;;;6.27;71.98;103229.68;1754747;81;21062;-89
2022/03/17 09:52:21;;;;;;;45.23;33.48;;;;;;;6.34;71.75;103233.33;1718666;81;22765;-89
2022/03/17 09:54:49;;;;;;;47.10;33.23;;;;;;;6.39;71.87;103231.60;1741545;81;21107;-89
2022/03/17 09:57:16;;;;;;;48.33;35.28;;;;;;;6.52;71.88;103233.52;1753040;81;21093;-90
2022/03/17 09:59:48;;;;;;;55.70;37.63;;;;;;;6.65;72.02;103231.51;1740457;81;21458;-90
2022/03/17 10:02:16;;;;;;;47.62;33.60;;;;;;;6.83;72.04;103229.84;1755708;81;21058;-90
2022/03/17 10:04:47;;;;;;;51.65;35.70;;;;;;;6.96;71.78;103232.64;1753904;81;21761;-89
2022/03/17 10:07:18;;;;;;;48.15;34.67;;;;;;;7.07;71.64;103234.81;1740489;80;21031;-90
2022/03/17 10:09:45;;;;;;;47.48;35.38;;;;;;;7.13;71.33;103227.43;1712156;82;21027;-89
2022/03/17 10:12:13;;;;;;;55.60;37.40;;;;;;;7.23;71.38;103229.09;1740687;81;21066;-89
2022/03/17 10:14:45;;;;;;;49.15;35.33;;;;;;;7.34;71.16;103226.52;1740211;81;21055;-89
2022/03/17 10:17:39;;;;;;;58.83;34.40;;;;;;;7.44;70.84;103221.58;1731755;81;21865;-89
2022/03/17 10:20:22;;;;;;;50.23;35.08;;;;;;;7.54;70.81;103217.55;1727448;81;21548;-87
2022/03/17 10:22:57;;;;;;;47.93;35.08;;;;;;;7.70;70.48;103216.13;1736028;81;21197;-89
2022/03/17 10:25:27;;;;;;;52.40;35.43;;;;;;;7.82;70.38;103213.11;1724370;81;21551;-89
2022/03/17 10:27:56;;;;;;;55.03;38.85;;;;;;;7.88;69.95;103210.03;1720865;81;21090;-88
2022/03/17 10:30:34;;;;;;;48.70;37.17;;;;;;;7.83;69.58;103199.59;1724205;81;21785;-87
2022/03/17 10:33:14;;;;;;;53.75;37.65;;;;;;;7.96;69.40;103212.45;1724825;82;21130;-88
2022/03/17 10:35:45;;;;;;;51.28;38.00;;;;;;;8.07;69.36;103211.02;1720425;81;21086;-87
2022/03/17 10:38:19;;;;;;;54.50;36.10;;;;;;;8.20;69.40;103205.87;1734774;81;21583;-88
2022/03/17 10:41:00;;;;;;;55.17;38.45;;;;;;;8.30;69.00;103203.56;1734750;81;21101;-85
2022/03/17 10:43:26;;;;;;;55.63;36.23;;;;;;;8.38;68.97;103200.67;1731139;80;21810;-87
2022/03/17 10:46:19;;;;;;;47.90;35.13;;;;;;;8.53;68.97;103203.95;1733971;80;21321;-87
2022/03/17 10:49:06;;;;;;;52.23;35.33;;;;;;;8.65;68.67;103196.98;1746387;81;21043;-87
2022/03/17 10:51:43;;;;;;;50.43;35.70;;;;;;;8.66;68.19;103172.53;1731664;80;21058;-87
2022/03/17 10:54:17;;;;;;;53.63;36.38;;;;;;;8.87;67.93;103184.95;1714298;81;21098;-89
2022/03/17 10:57:05;;;;;;;51.02;35.05;;;;;;;9.00;67.65;103184.12;1717009;80;22549;-89
2022/03/17 10:59:49;;;;;;;59.45;39.05;;;;;;;9.05;67.28;103176.58;1697707;83;21125;-88
2022/03/17 11:02:17;;;;;;;60.98;38.42;;;;;;;9.14;67.11;103164.98;1662197;83;21128;-88
2022/03/17 11:04:45;;;;;;;58.38;37.70;;;;;;;9.28;66.82;103156.73;1731676;82;21346;-88
2022/03/17 11:07:17;;;;;;;50.25;34.45;;;;;;;9.39;66.38;103167.98;1733822;81;21096;-84
2022/03/17 11:09:46;;;;;;;49.53;33.65;;;;;;;9.45;66.03;103164.87;1734537;80;21621;-85
2022/03/17 11:12:17;;;;;;;49.85;37.13;;;;;;;9.50;66.06;103159.12;1740005;81;21049;-86
2022/03/17 11:14:50;;;;;;;62.15;42.35;;;;;;;9.62;65.85;103147.61;1743603;81;21037;-86
2022/03/17 11:17:27;;;;;;;53.13;36.70;;;;;;;9.69;65.49;103147.22;1742785;82;21118;-86
2022/03/17 11:19:54;;;;;;;58.15;38.45;;;;;;;9.75;65.20;103148.93;1736473;81;21084;-86
2022/03/17 11:22:23;;;;;;;52.25;34.78;;;;;;;9.81;65.04;103147.11;1739372;80;21064;-86
2022/03/17 11:25:25;;;;;;;51.33;33.50;;;;;;;9.88;64.80;103146.72;1740223;80;21064;-85
2022/03/17 11:28:00;;;;;;;42.00;30.97;;;;;;;9.97;64.51;103143.80;1733943;81;21715;-86
2022/03/17 11:30:34;;;;;;;44.00;30.55;;;;;;;10.10;64.40;103143.38;1661988;84;21122;-86